Time;durP1;ratioP1;P1;durP2;ratioP2;P2;SDS_P1;SDS_P2;PMS_P1;PMS_P2;Temp;Humidity;BMP_temperature;BMP_pressure;BME280_temperature;BME280_humidity;BME280_pressure;Samples;Min_cycle;Max_cycle;Signal;HPM_P1;HPM_P2
2022/12/18 00:00:16;;;;;;;58.70;41.00;;;;;;;-3.02;70.28;101981.48;107513;1292;22622;-82
2022/12/18 00:03:09;;;;;;;53.60;39.50;;;;;;;-3.04;70.34;101982.77;107745;1286;22015;-80
2022/12/18 00:05:54;;;;;;;60.20;40.40;;;;;;;-3.02;70.26;101984.75;108179;1279;21950;-81
2022/12/18 00:08:39;;;;;;;52.50;39.50;;;;;;;-2.99;70.40;101981.45;108257;1283;22892;-81
2022/12/18 00:11:26;;;;;;;52.10;40.10;;;;;;;-2.98;70.44;101983.90;108372;1282;21963;-82
2022/12/18 00:14:00;;;;;;;58.80;43.50;;;;;;;-2.96;70.51;101982.81;108436;1283;21955;-83
2022/12/18 00:16:46;;;;;;;58.20;41.90;;;;;;;-2.91;70.46;101990.84;108126;1286;21971;-82
2022/12/18 00:19:19;;;;;;;60.10;42.00;;;;;;;-2.89;70.39;101991.62;108196;1286;23249;-83
2022/12/18 00:21:58;;;;;;;56.60;41.60;;;;;;;-2.86;70.37;101992.06;108061;1285;23645;-82
2022/12/18 00:24:28;;;;;;;54.50;41.80;;;;;;;-2.86;70.30;101990.18;108271;1286;22334;-83
2022/12/18 00:27:06;;;;;;;60.80;43.50;;;;;;;-2.87;70.31;101997.31;108264;1285;21955;-83
2022/12/18 00:29:40;;;;;;;55.60;40.70;;;;;;;-2.87;70.34;102001.74;108180;1285;22610;-83
2022/12/18 00:32:12;;;;;;;60.20;40.50;;;;;;;-2.90;70.21;102007.09;108227;1286;21968;-84
2022/12/18 00:34:44;;;;;;;55.90;43.20;;;;;;;-2.96;70.16;102012.44;108274;1283;21943;-84
2022/12/18 00:37:17;;;;;;;59.30;43.20;;;;;;;-2.97;70.26;102014.95;108257;1283;21995;-81
2022/12/18 00:39:52;;;;;;;59.90;42.80;;;;;;;-2.93;70.34;102016.64;108386;1283;21963;-83
2022/12/18 00:45:17;;;;;;;61.60;45.50;;;;;;;-2.91;70.34;102022.38;108481;1283;23643;-83
2022/12/18 00:47:56;;;;;;;59.60;42.00;;;;;;;-2.94;70.38;102029.75;108090;1282;23626;-83
2022/12/18 00:50:34;;;;;;;56.90;40.30;;;;;;;-2.93;70.29;102034.20;108232;1282;21951;-82
2022/12/18 00:53:13;;;;;;;56.40;40.80;;;;;;;-2.94;70.29;102039.44;108359;1282;21940;-83
2022/12/18 00:55:52;;;;;;;57.00;41.50;;;;;;;-2.95;70.24;102039.93;108390;1282;22421;-81
2022/12/18 00:58:22;;;;;;;62.00;44.00;;;;;;;-2.97;70.17;102046.46;108548;1282;24375;-82
2022/12/18 01:00:57;;;;;;;57.80;42.40;;;;;;;-3.00;70.24;102052.45;108504;1274;21955;-83
2022/12/18 01:03:30;;;;;;;63.60;45.50;;;;;;;-2.99;70.41;102054.55;108215;1282;22883;-82
2022/12/18 01:06:05;;;;;;;65.20;46.80;;;;;;;-2.95;70.36;102060.84;108076;1277;21993;-82
2022/12/18 01:08:38;;;;;;;63.10;44.30;;;;;;;-2.93;70.31;102058.72;107870;1283;23109;-84
2022/12/18 01:11:20;;;;;;;58.10;44.00;;;;;;;-2.96;70.23;102052.45;107817;1289;21947;-88
2022/12/18 01:13:55;;;;;;;68.50;46.70;;;;;;;-3.00;70.09;102057.92;108055;1286;22794;-85
2022/12/18 01:16:32;;;;;;;65.00;44.80;;;;;;;-3.04;70.02;102062.16;108087;1289;22159;-85
2022/12/18 01:19:09;;;;;;;57.80;43.10;;;;;;;-3.11;70.00;102063.90;107873;1289;23622;-83
2022/12/18 01:21:51;;;;;;;71.30;46.60;;;;;;;-3.12;70.13;102065.36;107849;1288;22067;-83
2022/12/18 01:24:21;;;;;;;63.50;44.50;;;;;;;-3.13;70.13;102069.91;108024;1282;22209;-82
2022/12/18 01:27:03;;;;;;;65.40;46.30;;;;;;;-3.14;70.24;102071.95;108320;1282;21942;-84
2022/12/18 01:29:37;;;;;;;73.40;49.70;;;;;;;-3.13;70.20;102071.62;108299;1283;21962;-84
2022/12/18 01:32:08;;;;;;;73.90;50.60;;;;;;;-3.15;70.24;102068.63;108215;1282;21976;-83
2022/12/18 01:34:38;;;;;;;70.60;49.90;;;;;;;-3.13;70.27;102063.95;108409;1283;21967;-84
2022/12/18 01:37:13;;;;;;;75.30;50.10;;;;;;;-3.11;70.32;102064.04;108520;1282;22595;-84
2022/12/18 01:39:42;;;;;;;74.50;52.60;;;;;;;-3.10;70.21;102064.26;108140;1282;22895;-84
2022/12/18 01:42:14;;;;;;;79.90;55.50;;;;;;;-3.13;70.13;102068.23;108232;1283;22086;-84
2022/12/18 01:45:22;;;;;;;74.90;52.10;;;;;;;-3.16;70.10;102068.95;108368;1282;22238;-83
2022/12/18 01:48:02;;;;;;;80.40;50.40;;;;;;;-3.21;70.08;102068.21;108474;1283;23075;-82
2022/12/18 01:50:43;;;;;;;75.80;51.70;;;;;;;-3.27;70.00;102065.89;107822;1289;21978;-83
2022/12/18 01:53:23;;;;;;;74.00;50.10;;;;;;;-3.34;69.97;102070.81;107530;1294;23067;-84
2022/12/18 01:55:57;;;;;;;70.20;46.90;;;;;;;-3.38;70.03;102078.83;107323;1294;21950;-83
2022/12/18 01:58:53;;;;;;;75.60;48.20;;;;;;;-3.42;70.03;102078.49;107532;1294;21967;-83
2022/12/18 02:01:28;;;;;;;68.70;45.20;;;;;;;-3.50;69.95;102080.65;107511;1292;22664;-83
2022/12/18 02:04:25;;;;;;;74.20;45.60;;;;;;;-3.59;70.08;102083.80;107434;1294;23135;-82
2022/12/18 02:07:18;;;;;;;67.00;43.20;;;;;;;-3.63;70.21;102087.49;107327;1290;23617;-83
2022/12/18 02:10:00;;;;;;;73.00;46.00;;;;;;;-3.66;70.22;102091.94;107754;1287;21959;-82
2022/12/18 02:13:14;;;;;;;69.40;42.40;;;;;;;-3.67;70.29;102099.38;108310;1283;23619;-81
2022/12/18 02:16:04;;;;;;;68.00;44.40;;;;;;;-3.69;70.38;102105.61;108471;1283;22442;-82
2022/12/18 02:18:54;;;;;;;73.20;41.90;;;;;;;-3.68;70.50;102118.73;108439;1265;23048;-82
2022/12/18 02:21:44;;;;;;;76.10;46.80;;;;;;;-3.71;70.29;102123.73;108220;1283;23175;-82
2022/12/18 02:24:55;;;;;;;72.60;45.10;;;;;;;-3.74;70.32;102127.34;108142;1283;21974;-81
2022/12/18 02:27:34;;;;;;;75.80;43.00;;;;;;;-3.74;70.48;102134.50;108360;1283;23161;-82
2022/12/18 02:30:16;;;;;;;70.20;44.90;;;;;;;-3.71;70.46;102138.66;108423;1280;21942;-82
2022/12/18 02:32:54;;;;;;;78.80;47.60;;;;;;;-3.70;70.54;102139.56;108293;1283;21942;-82
2022/12/18 02:35:29;;;;;;;71.10;44.30;;;;;;;-3.69;70.41;102144.20;108157;1283;22256;-81
2022/12/18 02:38:15;;;;;;;70.50;44.30;;;;;;;-3.69;70.31;102146.97;108214;1283;21989;-83
2022/12/18 02:40:55;;;;;;;68.80;44.00;;;;;;;-3.74;70.18;102146.55;107752;1288;22010;-81
2022/12/18 02:43:25;;;;;;;69.10;44.50;;;;;;;-3.78;70.37;102146.52;107530;1288;21924;-81
2022/12/18 02:46:20;;;;;;;76.40;45.30;;;;;;;-3.81;70.28;102148.76;107707;1288;21958;-82
2022/12/18 02:49:11;;;;;;;74.20;44.50;;;;;;;-3.87;70.21;102151.84;107820;1288;22022;-83
2022/12/18 02:52:11;;;;;;;74.70;45.40;;;;;;;-3.95;70.40;102156.41;107832;1288;21993;-82
2022/12/18 02:54:50;;;;;;;72.40;44.50;;;;;;;-3.97;70.51;102160.54;107614;1288;23710;-80
2022/12/18 02:57:53;;;;;;;69.20;46.00;;;;;;;-3.94;70.63;102159.69;107818;1288;22025;-81
2022/12/18 03:00:48;;;;;;;73.50;43.20;;;;;;;-3.93;70.61;102162.10;107874;1288;22743;-83
2022/12/18 03:04:04;;;;;;;73.50;46.30;;;;;;;-3.99;70.39;102170.97;107871;1288;22483;-81
2022/12/18 03:06:53;;;;;;;72.90;44.70;;;;;;;-4.15;70.33;102177.30;107582;1288;22145;-81
2022/12/18 03:09:36;;;;;;;72.30;42.30;;;;;;;-4.22;70.56;102179.13;107662;1288;23212;-83
2022/12/18 03:12:35;;;;;;;74.20;44.50;;;;;;;-4.24;70.51;102179.55;107813;1288;21753;-83
2022/12/18 03:15:25;;;;;;;71.50;43.10;;;;;;;-4.25;70.68;102183.40;107962;1288;23700;-82
2022/12/18 03:18:10;;;;;;;76.80;43.90;;;;;;;-4.30;70.53;102181.61;107820;1288;21944;-80
2022/12/18 03:20:44;;;;;;;73.80;44.30;;;;;;;-4.33;70.68;102185.26;107794;1288;23642;-82
2022/12/18 03:23:22;;;;;;;76.20;43.00;;;;;;;-4.30;70.84;102186.24;107554;1288;22739;-82
2022/12/18 03:26:04;;;;;;;79.10;45.50;;;;;;;-4.29;70.91;102185.92;107694;1288;21988;-82
2022/12/18 03:28:46;;;;;;;76.00;45.70;;;;;;;-4.30;70.93;102186.89;107983;1288;21960;-80
2022/12/18 03:31:17;;;;;;;82.40;47.40;;;;;;;-4.29;71.06;102190.53;107547;1288;23748;-80
2022/12/18 03:33:53;;;;;;;73.70;45.60;;;;;;;-4.29;70.94;102192.23;107711;1288;21962;-81
2022/12/18 03:36:27;;;;;;;71.10;44.30;;;;;;;-4.30;71.00;102190.84;107840;1288;22165;-80
2022/12/18 03:38:57;;;;;;;70.10;41.20;;;;;;;-4.29;70.91;102193.44;107285;1294;22031;-81
2022/12/18 03:41:33;;;;;;;78.20;43.60;;;;;;;-4.30;70.75;102196.27;107253;1293;23722;-79
2022/12/18 03:44:37;;;;;;;72.90;42.80;;;;;;;-4.33;70.82;102199.15;107560;1288;23238;-79
2022/12/18 03:47:27;;;;;;;70.00;41.80;;;;;;;-4.33;71.06;102206.81;108018;1288;22202;-80
2022/12/18 03:50:14;;;;;;;72.00;43.40;;;;;;;-4.31;71.10;102205.19;107931;1286;22082;-81
2022/12/18 03:53:00;;;;;;;66.10;42.50;;;;;;;-4.31;71.08;102206.04;107957;1288;21988;-82
2022/12/18 03:55:34;;;;;;;77.80;46.40;;;;;;;-4.30;71.05;102209.16;107837;1278;22184;-82
2022/12/18 03:58:08;;;;;;;78.60;47.60;;;;;;;-4.35;70.86;102209.61;108112;1283;22811;-82
2022/12/18 04:00:56;;;;;;;82.20;49.60;;;;;;;-4.39;70.96;102211.45;108442;1283;22854;-82
2022/12/18 04:03:31;;;;;;;96.40;55.90;;;;;;;-4.38;70.93;102217.61;108428;1282;23551;-85
2022/12/18 04:06:03;;;;;;;93.20;53.60;;;;;;;-4.38;70.89;102225.59;108430;1283;23032;-80
2022/12/18 04:08:35;;;;;;;98.50;56.40;;;;;;;-4.38;71.00;102223.70;108409;1279;21971;-80
2022/12/18 04:11:07;;;;;;;105.50;62.80;;;;;;;-4.36;71.07;102228.39;108290;1283;23683;-80
2022/12/18 04:13:38;;;;;;;99.10;60.50;;;;;;;-4.34;71.04;102226.16;108449;1284;21936;-80
2022/12/18 04:16:12;;;;;;;107.80;65.10;;;;;;;-4.33;70.95;102230.59;108356;1283;23090;-80
2022/12/18 04:18:42;;;;;;;112.10;64.40;;;;;;;-4.35;70.86;102232.20;108186;1283;21945;-83
2022/12/18 04:21:12;;;;;;;110.30;65.20;;;;;;;-4.38;70.89;102235.79;107985;1289;23074;-82
2022/12/18 04:23:41;;;;;;;96.10;56.30;;;;;;;-4.42;70.82;102237.45;107790;1289;22364;-81
2022/12/18 04:26:14;;;;;;;106.00;60.60;;;;;;;-4.47;70.81;102235.81;108000;1288;21983;-82
2022/12/18 04:28:54;;;;;;;102.90;58.80;;;;;;;-4.50;70.75;102238.55;108045;1287;23285;-82
2022/12/18 04:31:24;;;;;;;95.10;54.30;;;;;;;-4.54;70.77;102237.64;108050;1288;21943;-83
2022/12/18 04:33:54;;;;;;;86.80;52.60;;;;;;;-4.56;70.70;102241.96;107531;1294;21974;-82
2022/12/18 04:36:25;;;;;;;92.30;52.60;;;;;;;-4.60;70.69;102251.10;107472;1294;22018;-82
2022/12/18 04:38:55;;;;;;;100.70;56.20;;;;;;;-4.63;70.59;102252.45;107404;1293;23727;-82
2022/12/18 04:41:25;;;;;;;99.60;58.20;;;;;;;-4.65;70.73;102251.35;107354;1294;22225;-81
2022/12/18 04:43:57;;;;;;;98.00;59.30;;;;;;;-4.65;70.87;102256.45;107242;1287;22023;-81
2022/12/18 04:46:27;;;;;;;99.60;60.40;;;;;;;-4.64;70.92;102257.32;107684;1288;21968;-82
2022/12/18 04:48:56;;;;;;;98.90;58.40;;;;;;;-4.62;71.14;102262.52;107806;1289;21972;-81
2022/12/18 04:51:26;;;;;;;102.50;59.80;;;;;;;-4.62;71.06;102262.87;107619;1283;23327;-80
2022/12/18 04:53:56;;;;;;;101.60;57.80;;;;;;;-4.63;71.04;102265.35;108178;1283;21959;-82
2022/12/18 04:56:25;;;;;;;95.80;57.30;;;;;;;-4.65;70.98;102261.04;108237;1283;21937;-82
2022/12/18 04:58:54;;;;;;;109.60;59.70;;;;;;;-4.65;71.04;102264.39;108401;1281;21951;-83
2022/12/18 05:01:24;;;;;;;94.50;61.20;;;;;;;-4.65;71.11;102267.27;108105;1283;22401;-82
2022/12/18 05:04:03;;;;;;;99.30;59.50;;;;;;;-4.68;71.08;102268.80;108141;1283;21913;-81
2022/12/18 05:06:33;;;;;;;103.90;63.80;;;;;;;-4.70;71.08;102271.11;107718;1288;23795;-81
2022/12/18 05:09:03;;;;;;;94.60;55.30;;;;;;;-4.73;70.99;102273.80;107787;1288;21725;-81
2022/12/18 05:11:37;;;;;;;84.10;52.50;;;;;;;-4.79;70.98;102281.31;107745;1288;21950;-81
2022/12/18 05:14:06;;;;;;;90.90;52.20;;;;;;;-4.81;70.96;102285.61;107469;1288;21819;-82
2022/12/18 05:16:42;;;;;;;104.80;63.80;;;;;;;-4.83;71.11;102286.52;107028;1296;22428;-82
2022/12/18 05:19:12;;;;;;;98.30;59.10;;;;;;;-4.88;70.98;102293.35;107194;1297;21766;-80
2022/12/18 05:21:42;;;;;;;93.10;55.20;;;;;;;-4.91;71.20;102299.64;107130;1297;22005;-81
2022/12/18 05:24:12;;;;;;;85.70;51.60;;;;;;;-4.93;71.14;102302.76;106427;1297;23130;-82
2022/12/18 05:26:41;;;;;;;83.30;46.70;;;;;;;-4.96;71.25;102304.15;106550;1297;23693;-81
2022/12/18 05:29:12;;;;;;;78.40;46.10;;;;;;;-4.97;71.36;102305.08;106247;1302;21982;-81
2022/12/18 05:31:42;;;;;;;88.90;50.00;;;;;;;-4.98;71.29;102305.23;106484;1300;22024;-81
2022/12/18 05:34:13;;;;;;;87.10;49.00;;;;;;;-4.97;71.36;102306.29;106519;1297;21964;-81
2022/12/18 05:36:42;;;;;;;91.80;50.90;;;;;;;-4.96;71.46;102305.66;107084;1292;22777;-81
2022/12/18 05:39:12;;;;;;;91.90;50.30;;;;;;;-4.98;71.37;102302.35;107188;1297;22430;-81
2022/12/18 05:41:42;;;;;;;100.50;56.80;;;;;;;-5.00;71.17;102301.17;107126;1291;22840;-82
2022/12/18 05:44:20;;;;;;;104.20;56.10;;;;;;;-5.04;71.24;102303.02;107443;1294;23661;-81
2022/12/18 05:46:53;;;;;;;95.00;55.00;;;;;;;-5.05;71.37;102303.11;106705;1290;22528;-81
2022/12/18 05:49:25;;;;;;;93.60;53.60;;;;;;;-5.04;71.53;102306.58;107392;1294;21962;-82
2022/12/18 05:51:55;;;;;;;106.80;60.00;;;;;;;-5.02;71.53;102311.10;107661;1294;21942;-82
2022/12/18 05:54:28;;;;;;;93.90;53.70;;;;;;;-5.01;71.58;102315.22;107301;1294;22772;-82
2022/12/18 05:56:58;;;;;;;88.50;47.40;;;;;;;-5.04;71.40;102319.79;107449;1295;21956;-83
2022/12/18 05:59:28;;;;;;;88.40;51.10;;;;;;;-5.07;71.35;102324.73;107671;1292;21974;-82
2022/12/18 06:01:57;;;;;;;97.90;54.70;;;;;;;-5.07;71.45;102330.83;106979;1293;21925;-82
2022/12/18 06:04:30;;;;;;;93.00;55.10;;;;;;;-5.06;71.33;102336.67;106967;1289;23729;-81
2022/12/18 06:07:05;;;;;;;96.30;56.50;;;;;;;-5.09;71.34;102339.73;107221;1295;23090;-81
2022/12/18 06:09:34;;;;;;;103.50;56.70;;;;;;;-5.13;71.26;102348.33;107287;1282;25115;-80
2022/12/18 06:12:04;;;;;;;94.80;54.90;;;;;;;-5.15;71.33;102355.19;107811;1288;23045;-81
2022/12/18 06:14:33;;;;;;;100.70;57.90;;;;;;;-5.20;71.27;102361.52;108032;1289;21944;-81
2022/12/18 06:17:03;;;;;;;94.50;53.60;;;;;;;-5.20;71.41;102361.01;107954;1288;22295;-80
2022/12/18 06:19:33;;;;;;;96.60;56.90;;;;;;;-5.25;71.24;102361.39;107536;1288;23643;-80
2022/12/18 06:22:02;;;;;;;98.90;55.70;;;;;;;-5.37;71.18;102365.94;107910;1288;21946;-81
2022/12/18 06:24:32;;;;;;;95.60;54.50;;;;;;;-5.39;71.42;102373.65;107802;1287;21973;-81
2022/12/18 06:27:02;;;;;;;112.80;60.90;;;;;;;-5.38;71.47;102376.04;107777;1288;22175;-80
2022/12/18 06:29:31;;;;;;;100.60;56.20;;;;;;;-5.36;71.75;102379.91;107865;1288;21961;-82
2022/12/18 06:32:02;;;;;;;106.10;56.80;;;;;;;-5.36;71.71;102381.41;107761;1288;23030;-83
2022/12/18 06:34:40;;;;;;;101.40;57.10;;;;;;;-5.37;71.66;102382.59;107578;1288;22151;-82
2022/12/18 06:37:12;;;;;;;88.30;50.50;;;;;;;-5.39;71.51;102385.51;107788;1283;22181;-81
2022/12/18 06:39:46;;;;;;;89.70;51.90;;;;;;;-5.44;71.56;102385.88;108258;1282;21961;-80
2022/12/18 06:42:23;;;;;;;97.30;54.10;;;;;;;-5.47;71.56;102390.27;107787;1291;23620;-81
2022/12/18 06:44:54;;;;;;;93.40;51.70;;;;;;;-5.49;71.58;102395.45;107319;1296;23649;-81
2022/12/18 06:47:29;;;;;;;;;;;;;;;-5.49;71.67;102398.48;107358;1290;22374;-81
2022/12/18 06:49:58;;;;;;;100.80;51.90;;;;;;;-5.54;71.97;102407.02;107157;1294;23623;-80
2022/12/18 06:52:28;;;;;;;108.70;57.30;;;;;;;-5.55;71.80;102412.19;106877;1294;21960;-81
2022/12/18 06:54:57;;;;;;;103.30;59.20;;;;;;;-5.52;72.02;102415.11;107268;1294;22078;-81
2022/12/18 06:57:26;;;;;;;102.30;61.60;;;;;;;-5.49;71.96;102417.34;107282;1294;22004;-83
2022/12/18 06:59:58;;;;;;;111.20;61.80;;;;;;;-5.44;72.07;102419.96;107338;1291;23829;-83
2022/12/18 07:02:27;;;;;;;113.70;59.20;;;;;;;-5.39;72.08;102423.50;107311;1288;23733;-82
2022/12/18 07:04:57;;;;;;;105.00;57.30;;;;;;;-5.39;71.88;102427.78;107757;1282;22156;-81
2022/12/18 07:07:35;;;;;;;104.20;58.30;;;;;;;-5.47;71.73;102423.52;107921;1289;23158;-83
2022/12/18 07:10:13;;;;;;;97.90;53.70;;;;;;;-5.53;71.89;102422.86;107989;1289;21958;-84
2022/12/18 07:12:44;;;;;;;92.20;50.30;;;;;;;-5.58;71.78;102434.10;107976;1288;21999;-83
2022/12/18 07:15:14;;;;;;;95.60;53.10;;;;;;;-5.65;71.74;102438.75;107865;1289;21959;-83
2022/12/18 07:17:43;;;;;;;104.90;56.00;;;;;;;-5.69;71.83;102443.77;107300;1282;23607;-83
2022/12/18 07:20:18;;;;;;;97.40;53.60;;;;;;;-5.71;72.01;102446.70;107145;1292;22727;-84
2022/12/18 07:22:48;;;;;;;88.30;50.10;;;;;;;-5.67;72.23;102451.65;107661;1291;21973;-84
2022/12/18 07:25:40;;;;;;;92.30;51.70;;;;;;;-5.67;72.20;102450.86;107356;1295;23646;-87
2022/12/18 07:28:12;;;;;;;104.40;57.50;;;;;;;-5.65;72.42;102455.83;107234;1295;21956;-83
2022/12/18 07:30:45;;;;;;;95.10;52.90;;;;;;;-5.58;72.62;102457.85;107196;1294;23887;-84
2022/12/18 07:33:16;;;;;;;99.70;56.90;;;;;;;-5.52;72.44;102462.92;107201;1297;22880;-81
2022/12/18 07:35:45;;;;;;;95.40;54.90;;;;;;;-5.48;72.44;102462.13;107308;1291;21966;-84
2022/12/18 07:38:15;;;;;;;100.30;52.70;;;;;;;-5.44;72.57;102457.64;106995;1297;21957;-83
2022/12/18 07:40:44;;;;;;;92.50;52.50;;;;;;;-5.41;72.68;102458.88;106292;1305;23825;-84
2022/12/18 07:43:13;;;;;;;97.80;54.70;;;;;;;-5.36;72.77;102465.25;106454;1300;22760;-84
2022/12/18 07:45:49;;;;;;;113.50;59.40;;;;;;;-5.29;72.76;102466.04;107005;1297;22006;-85
2022/12/18 07:48:19;;;;;;;107.30;56.10;;;;;;;-5.22;72.62;102469.02;107410;1292;22151;-83
2022/12/18 07:50:48;;;;;;;104.40;57.60;;;;;;;-5.26;72.16;102473.67;107288;1294;21952;-83
2022/12/18 07:53:18;;;;;;;95.10;52.70;;;;;;;-5.37;72.04;102469.63;107061;1294;22080;-82
2022/12/18 07:55:47;;;;;;;115.00;61.10;;;;;;;-5.43;72.15;102471.47;107152;1294;22762;-84
2022/12/18 07:58:37;;;;;;;101.30;57.30;;;;;;;-5.43;72.37;102470.58;107128;1288;24312;-85
2022/12/18 08:01:11;;;;;;;101.30;59.50;;;;;;;-5.39;72.41;102475.95;107879;1285;21911;-85
2022/12/18 08:03:44;;;;;;;107.10;65.50;;;;;;;-5.36;72.51;102476.34;108287;1282;21958;-84
2022/12/18 08:06:13;;;;;;;118.10;65.60;;;;;;;-5.25;72.72;102477.30;108412;1283;23005;-82
2022/12/18 08:08:42;;;;;;;102.80;56.10;;;;;;;-5.19;72.64;102486.65;108281;1283;22405;-83
2022/12/18 08:11:15;;;;;;;100.10;57.20;;;;;;;-5.21;72.37;102490.30;108168;1283;23590;-83
2022/12/18 08:13:46;;;;;;;112.10;61.80;;;;;;;-5.23;72.33;102490.87;108242;1283;22314;-84
2022/12/18 08:16:20;;;;;;;111.40;62.00;;;;;;;-5.19;72.61;102496.19;108214;1282;21953;-84
2022/12/18 08:19:02;;;;;;;116.20;67.70;;;;;;;-5.11;72.75;102504.80;108266;1283;23035;-83
2022/12/18 08:21:38;;;;;;;117.70;64.90;;;;;;;-5.06;72.64;102504.94;108181;1283;23084;-83
2022/12/18 08:24:10;;;;;;;116.20;64.70;;;;;;;-5.04;72.53;102501.98;108409;1282;23135;-85
2022/12/18 08:26:43;;;;;;;101.70;60.20;;;;;;;-5.04;72.39;102504.71;108477;1283;21958;-85
2022/12/18 08:29:33;;;;;;;113.90;67.80;;;;;;;-5.05;72.43;102507.55;108409;1282;22251;-82
2022/12/18 08:32:05;;;;;;;118.50;70.70;;;;;;;-5.02;72.62;102512.17;108532;1277;24350;-81
2022/12/18 08:34:37;;;;;;;134.50;83.40;;;;;;;-4.97;72.59;102514.98;108442;1283;21968;-82
2022/12/18 08:37:09;;;;;;;111.30;68.50;;;;;;;-4.94;72.56;102514.52;107471;1282;1305630;-81
2022/12/18 08:39:39;;;;;;;129.30;77.50;;;;;;;-4.93;72.46;102516.97;108492;1282;22017;-83
2022/12/18 08:45:07;;;;;;;109.40;65.60;;;;;;;-4.85;72.38;102519.80;108377;1283;21964;-83
2022/12/18 08:47:37;;;;;;;104.80;60.10;;;;;;;-4.85;72.27;102521.14;108421;1283;21958;-82
2022/12/18 08:50:07;;;;;;;102.80;56.90;;;;;;;-4.83;72.21;102517.55;108374;1270;21964;-83
2022/12/18 08:52:37;;;;;;;98.90;57.70;;;;;;;-4.84;72.09;102525.81;108212;1282;21948;-82
2022/12/18 08:55:08;;;;;;;98.70;58.90;;;;;;;-4.83;71.94;102526.19;108220;1283;21958;-84
2022/12/18 08:57:44;;;;;;;93.30;56.80;;;;;;;-4.83;72.01;102531.63;108422;1282;21969;-83
2022/12/18 09:00:21;;;;;;;100.70;62.00;;;;;;;-4.86;71.77;102541.48;108332;1283;23701;-83
2022/12/18 09:03:01;;;;;;;118.00;68.60;;;;;;;-4.88;71.87;102545.75;108194;1280;21936;-83
2022/12/18 09:05:32;;;;;;;127.90;76.50;;;;;;;-4.86;72.06;102548.45;108470;1283;23793;-82
2022/12/18 09:08:03;;;;;;;115.60;67.20;;;;;;;-4.79;72.15;102544.94;108328;1274;22211;-83
2022/12/18 09:10:52;;;;;;;109.00;65.20;;;;;;;-4.77;72.08;102547.64;108159;1281;21975;-83
2022/12/18 09:13:23;;;;;;;145.60;96.20;;;;;;;-4.77;71.85;102546.41;108506;1283;21967;-82
2022/12/18 09:15:55;;;;;;;113.40;75.80;;;;;;;-4.79;71.75;102545.08;108555;1283;21664;-83
2022/12/18 09:18:25;;;;;;;104.30;61.50;;;;;;;-4.81;71.62;102546.02;107954;1288;21984;-84
2022/12/18 09:20:56;;;;;;;99.30;59.10;;;;;;;-4.84;71.63;102544.83;107931;1289;21962;-83
2022/12/18 09:23:29;;;;;;;100.70;60.10;;;;;;;-4.86;71.57;102542.28;107886;1289;22487;-83
2022/12/18 09:26:01;;;;;;;107.20;62.50;;;;;;;-4.93;71.40;102540.02;107703;1288;23069;-84
2022/12/18 09:28:31;;;;;;;110.10;63.80;;;;;;;-4.97;71.57;102537.23;107896;1288;21967;-84
2022/12/18 09:31:07;;;;;;;117.20;63.30;;;;;;;-4.88;72.13;102532.33;108182;1288;23109;-82
2022/12/18 09:33:39;;;;;;;100.80;57.00;;;;;;;-4.78;72.17;102524.42;108031;1289;22715;-83
2022/12/18 09:36:14;;;;;;;97.10;57.40;;;;;;;-4.77;71.93;102529.96;108132;1283;21949;-82
2022/12/18 09:38:45;;;;;;;95.40;57.40;;;;;;;-4.77;71.76;102530.30;108421;1286;22096;-81
2022/12/18 09:41:45;;;;;;;92.40;55.70;;;;;;;-4.84;71.18;102529.69;107901;1292;21997;-82
2022/12/18 09:44:24;;;;;;;103.40;62.50;;;;;;;-5.02;70.98;102529.29;108121;1289;21949;-82
2022/12/18 09:47:16;;;;;;;100.50;53.20;;;;;;;-5.16;70.92;102527.11;108111;1277;21967;-82
2022/12/18 09:49:53;;;;;;;95.90;56.40;;;;;;;-5.29;71.14;102528.54;107377;1297;22738;-83
2022/12/18 09:52:44;;;;;;;107.10;59.20;;;;;;;-5.28;71.71;102531.59;107316;1297;22612;-84
2022/12/18 09:55:38;;;;;;;105.20;58.70;;;;;;;-5.16;72.08;102522.70;107487;1293;21963;-82
2022/12/18 09:58:19;;;;;;;98.50;55.20;;;;;;;-5.04;72.08;102511.84;107315;1287;23061;-83
2022/12/18 10:00:57;;;;;;;108.50;61.00;;;;;;;-5.00;71.85;102510.54;107477;1294;22090;-83
2022/12/18 10:03:30;;;;;;;110.20;62.80;;;;;;;-4.94;72.06;102514.66;107687;1288;21950;-82
2022/12/18 10:06:20;;;;;;;117.30;69.90;;;;;;;-4.83;72.10;102507.84;107680;1288;21950;-81
2022/12/18 10:09:19;;;;;;;110.20;62.10;;;;;;;-4.77;72.10;102504.98;108182;1283;21955;-83
2022/12/18 10:12:27;;;;;;;122.80;66.40;;;;;;;-4.71;72.16;102501.94;108425;1282;23105;-83
2022/12/18 10:15:28;;;;;;;95.10;55.70;;;;;;;-4.73;71.72;102497.25;108266;1283;21973;-83
2022/12/18 10:18:06;;;;;;;103.10;55.90;;;;;;;-4.85;71.12;102498.87;108476;1279;21917;-82
2022/12/18 10:20:46;;;;;;;96.90;57.90;;;;;;;-4.92;71.50;102499.37;108560;1278;21963;-82
2022/12/18 10:23:41;;;;;;;103.70;63.30;;;;;;;-4.84;71.77;102503.88;107853;1288;22418;-81
2022/12/18 10:26:16;;;;;;;95.50;57.10;;;;;;;-4.76;71.81;102509.92;107897;1286;23576;-81
2022/12/18 10:28:46;;;;;;;99.50;60.80;;;;;;;-4.73;71.65;102513.73;108170;1287;21977;-84
2022/12/18 10:31:23;;;;;;;109.40;64.00;;;;;;;-4.66;71.76;102515.27;108198;1284;22171;-84
2022/12/18 10:33:56;;;;;;;94.20;55.10;;;;;;;-4.68;71.24;102515.35;107630;1294;21911;-84
2022/12/18 10:36:27;;;;;;;107.00;66.60;;;;;;;-4.84;70.84;102516.13;107158;1296;22525;-83
2022/12/18 10:39:22;;;;;;;108.60;65.70;;;;;;;-4.93;71.00;102515.73;107275;1297;23113;-84
2022/12/18 10:42:10;;;;;;;105.40;63.10;;;;;;;-4.97;71.12;102515.17;106844;1297;23074;-84
2022/12/18 10:44:42;;;;;;;85.10;52.20;;;;;;;-4.99;71.37;102515.55;107067;1297;23668;-84
2022/12/18 10:47:18;;;;;;;82.80;53.60;;;;;;;-4.92;71.64;102511.73;107058;1297;21977;-84
2022/12/18 10:49:57;;;;;;;86.80;54.60;;;;;;;-4.88;71.58;102503.83;107032;1297;21981;-83
2022/12/18 10:52:27;;;;;;;101.10;60.90;;;;;;;-4.85;71.37;102501.76;106954;1297;22031;-84
2022/12/18 10:55:04;;;;;;;100.90;60.10;;;;;;;-4.92;70.94;102502.20;107069;1295;21956;-84
2022/12/18 10:57:42;;;;;;;100.40;64.40;;;;;;;-4.94;71.26;102504.81;107165;1294;22994;-85
2022/12/18 11:00:21;;;;;;;107.80;72.70;;;;;;;-4.94;71.35;102508.74;107867;1283;24313;-83
2022/12/18 11:02:59;;;;;;;101.40;66.50;;;;;;;-4.88;71.60;102511.27;108015;1287;23041;-83
2022/12/18 11:05:32;;;;;;;116.40;72.10;;;;;;;-4.76;71.79;102516.05;107906;1289;22053;-84
2022/12/18 11:08:05;;;;;;;111.60;70.50;;;;;;;-4.76;71.33;102515.89;107928;1289;22336;-83
2022/12/18 11:10:40;;;;;;;129.70;79.70;;;;;;;-4.84;70.90;102519.13;107825;1289;21959;-84
2022/12/18 11:13:21;;;;;;;107.30;67.50;;;;;;;-4.95;70.82;102525.33;107874;1289;21943;-82
2022/12/18 11:15:51;;;;;;;84.00;57.60;;;;;;;-5.04;70.98;102521.37;108076;1288;21945;-82
2022/12/18 11:18:36;;;;;;;82.90;53.50;;;;;;;-5.05;71.12;102521.31;107795;1292;24318;-82
2022/12/18 11:21:12;;;;;;;77.40;52.70;;;;;;;-5.04;71.18;102521.54;107668;1286;21950;-82
2022/12/18 11:23:53;;;;;;;86.00;58.90;;;;;;;-5.02;71.26;102518.09;108102;1286;21975;-84
2022/12/18 11:26:34;;;;;;;92.10;59.30;;;;;;;-4.93;71.71;102515.41;108433;1288;22106;-84
2022/12/18 11:29:17;;;;;;;91.50;64.50;;;;;;;-4.81;71.86;102517.16;108236;1289;21979;-83
2022/12/18 11:31:52;;;;;;;91.60;64.70;;;;;;;-4.69;71.75;102522.27;108212;1289;21959;-85
2022/12/18 11:35:40;;;;;;;104.50;77.80;;;;;;;-4.63;71.63;102527.21;108032;1289;22820;-84
2022/12/18 11:38:37;;;;;;;93.20;66.10;;;;;;;-4.64;71.21;102534.26;108497;1281;21989;-82
2022/12/18 11:44:51;;;;;;;113.30;77.60;;;;;;;-4.79;71.11;102547.98;108240;1283;21942;-83
2022/12/18 11:47:39;;;;;;;85.20;61.20;;;;;;;-4.74;71.34;102551.73;108718;1267;23826;-85
2022/12/18 11:50:57;;;;;;;90.40;65.20;;;;;;;-4.64;71.56;102557.73;108659;1283;21941;-83
2022/12/18 11:53:30;;;;;;;86.60;56.00;;;;;;;-4.60;71.15;102555.59;107945;1289;23596;-81